Time;durP1;ratioP1;P1;durP2;ratioP2;P2;SDS_P1;SDS_P2;PMS_P1;PMS_P2;Temp;Humidity;BMP_temperature;BMP_pressure;BME280_temperature;BME280_humidity;BME280_pressure;Samples;Min_cycle;Max_cycle;Signal;HPM_P1;HPM_P2
2022/09/24 00:01:34;;;;;;;45.60;22.38;;;;;;;12.98;100.00;100995.78;5064480;28;19927;-84
2022/09/24 00:04:06;;;;;;;48.92;23.08;;;;;;;12.96;100.00;100998.66;5065054;28;20515;-83
2022/09/24 00:06:43;;;;;;;43.67;23.45;;;;;;;12.99;100.00;100997.53;5063048;28;20032;-84
2022/09/24 00:09:12;;;;;;;44.25;22.52;;;;;;;12.98;100.00;101001.28;5079067;28;20043;-83
2022/09/24 00:11:49;;;;;;;44.90;22.92;;;;;;;12.99;100.00;100992.06;5048114;28;20033;-83
2022/09/24 00:14:23;;;;;;;48.45;23.45;;;;;;;12.93;100.00;100995.31;5054394;28;20056;-84
2022/09/24 00:16:53;;;;;;;44.38;23.63;;;;;;;12.97;100.00;100988.53;5030706;28;20070;-84
2022/09/24 00:19:35;;;;;;;48.15;22.05;;;;;;;12.88;100.00;100991.09;5066703;28;20048;-84
2022/09/24 00:22:04;;;;;;;42.22;21.25;;;;;;;12.88;100.00;100976.47;5035949;28;20036;-84
2022/09/24 00:27:21;;;;;;;44.20;21.80;;;;;;;12.88;100.00;100987.47;5038970;28;20063;-85
2022/09/24 00:30:07;;;;;;;41.42;21.33;;;;;;;12.87;100.00;100977.47;5051608;28;20036;-85
2022/09/24 00:32:38;;;;;;;41.45;22.33;;;;;;;12.95;100.00;100983.19;5049112;28;20398;-85
2022/09/24 00:35:07;;;;;;;42.13;21.67;;;;;;;12.82;100.00;100975.16;5034913;28;20085;-84
2022/09/24 00:37:35;;;;;;;43.13;21.95;;;;;;;12.81;100.00;100964.28;5047328;28;20048;-84
2022/09/24 00:40:14;;;;;;;45.40;23.52;;;;;;;12.85;100.00;100974.00;5047887;28;20063;-85
2022/09/24 00:42:40;;;;;;;46.55;22.30;;;;;;;12.80;100.00;100976.28;5040091;28;20108;-85
2022/09/24 00:45:09;;;;;;;47.58;23.55;;;;;;;12.76;100.00;100972.06;5044343;28;20044;-84
2022/09/24 00:47:45;;;;;;;45.65;23.27;;;;;;;12.76;100.00;100977.56;5058794;28;20063;-84
2022/09/24 00:50:22;;;;;;;44.95;22.30;;;;;;;12.81;100.00;100976.16;5038245;28;20024;-84
2022/09/24 00:53:12;;;;;;;48.17;22.77;;;;;;;12.82;100.00;100969.66;5056439;28;20056;-84
2022/09/24 00:55:53;;;;;;;48.20;24.95;;;;;;;12.82;100.00;100964.16;5060306;28;20027;-84
2022/09/24 00:58:32;;;;;;;50.63;22.25;;;;;;;12.76;100.00;100959.19;5057466;28;20486;-84
2022/09/24 01:01:06;;;;;;;50.08;23.38;;;;;;;12.80;100.00;100962.53;5026172;28;20036;-84
2022/09/24 01:03:41;;;;;;;47.75;23.50;;;;;;;12.77;100.00;100949.94;5053452;28;20075;-85
2022/09/24 01:06:10;;;;;;;49.03;25.05;;;;;;;12.80;100.00;100954.28;5028963;28;20044;-84
2022/09/24 01:08:46;;;;;;;65.10;25.50;;;;;;;12.78;100.00;100953.56;5021225;28;20036;-85
2022/09/24 01:11:41;;;;;;;48.67;24.48;;;;;;;12.79;100.00;100952.53;5064456;28;20029;-85
2022/09/24 01:14:38;;;;;;;49.92;24.98;;;;;;;12.84;100.00;100944.78;5056902;28;20056;-84
2022/09/24 01:17:22;;;;;;;47.08;23.75;;;;;;;12.78;100.00;100942.56;5044007;28;20036;-85
2022/09/24 01:20:07;;;;;;;48.40;24.45;;;;;;;12.79;100.00;100941.56;5062070;28;20390;-85
2022/09/24 01:23:23;;;;;;;50.05;25.23;;;;;;;12.73;100.00;100931.97;5049342;28;20020;-85
2022/09/24 01:26:42;;;;;;;63.58;24.63;;;;;;;12.72;100.00;100927.47;5077768;28;20029;-84
2022/09/24 01:29:30;;;;;;;58.83;25.38;;;;;;;12.73;100.00;100931.97;5019984;28;20029;-85
2022/09/24 01:32:26;;;;;;;51.08;24.58;;;;;;;12.71;100.00;100922.13;5070656;28;20046;-85
2022/09/24 01:35:17;;;;;;;49.00;23.50;;;;;;;12.71;100.00;100925.75;5082822;28;20032;-84
2022/09/24 01:38:00;;;;;;;52.72;24.40;;;;;;;12.64;100.00;100914.44;5070413;28;20086;-84
2022/09/24 01:40:44;;;;;;;51.28;25.55;;;;;;;12.70;100.00;100924.00;5062838;28;20033;-84
2022/09/24 01:43:24;;;;;;;58.80;26.13;;;;;;;12.69;100.00;100909.41;5062480;28;20052;-84
2022/09/24 01:45:51;;;;;;;54.88;27.30;;;;;;;12.68;100.00;100888.41;5060527;28;20035;-84
2022/09/24 01:48:25;;;;;;;52.97;25.67;;;;;;;12.66;100.00;100895.94;5031269;28;20120;-84
2022/09/24 01:51:06;;;;;;;53.55;27.10;;;;;;;12.56;100.00;100892.25;5052258;28;20033;-84
2022/09/24 01:53:46;;;;;;;51.07;26.67;;;;;;;12.61;100.00;100895.47;5047262;28;20032;-84
2022/09/24 01:56:19;;;;;;;58.53;27.17;;;;;;;12.69;100.00;100905.75;5076246;28;20025;-84
2022/09/24 01:58:55;;;;;;;60.20;29.20;;;;;;;12.65;100.00;100896.06;5049994;28;20477;-84
2022/09/24 02:01:32;;;;;;;54.67;28.58;;;;;;;12.65;100.00;100893.31;5046973;28;20039;-84
2022/09/24 02:04:09;;;;;;;61.60;28.40;;;;;;;12.64;100.00;100897.06;5060296;28;20492;-83
2022/09/24 02:06:53;;;;;;;58.47;27.83;;;;;;;12.64;100.00;100905.31;5063080;28;20032;-84
2022/09/24 02:09:35;;;;;;;62.22;28.27;;;;;;;12.66;100.00;100893.19;5073457;28;20077;-85
2022/09/24 02:12:25;;;;;;;61.25;28.02;;;;;;;12.60;100.00;100887.38;5044854;28;20058;-85
2022/09/24 02:15:08;;;;;;;66.80;30.33;;;;;;;12.70;100.00;100896.53;5063947;28;20084;-84
2022/09/24 02:17:58;;;;;;;58.03;28.52;;;;;;;12.62;100.00;100888.94;5072832;28;20033;-84
2022/09/24 02:20:37;;;;;;;66.15;30.17;;;;;;;12.61;100.00;100881.75;5047716;28;20433;-84
2022/09/24 02:23:09;;;;;;;59.97;28.85;;;;;;;12.59;100.00;100892.00;5063912;28;20498;-85
2022/09/24 02:25:57;;;;;;;62.72;30.23;;;;;;;12.63;100.00;100890.69;5062512;28;20028;-84
2022/09/24 02:28:31;;;;;;;63.55;31.70;;;;;;;12.58;100.00;100884.75;5064351;28;20470;-84
2022/09/24 02:31:15;;;;;;;73.75;33.22;;;;;;;12.63;100.00;100876.97;5029705;28;20063;-85
2022/09/24 02:36:37;;;;;;;88.43;36.72;;;;;;;12.56;100.00;100875.78;5069500;28;20032;-84
2022/09/24 02:39:06;;;;;;;74.05;35.95;;;;;;;12.57;100.00;100883.00;5046874;28;20434;-85
2022/09/24 02:41:46;;;;;;;77.63;36.63;;;;;;;12.51;100.00;100867.06;5027870;28;20171;-85
2022/09/24 02:44:18;;;;;;;69.47;35.60;;;;;;;12.59;100.00;100881.00;5016081;28;20472;-85
2022/09/24 02:46:46;;;;;;;79.03;38.53;;;;;;;12.44;100.00;100854.88;5054688;28;20040;-85
2022/09/24 02:49:15;;;;;;;81.40;39.20;;;;;;;12.33;100.00;100842.09;5058065;28;20091;-84
2022/09/24 02:51:47;;;;;;;86.82;40.25;;;;;;;12.44;100.00;100858.47;5057767;28;20420;-84
2022/09/24 02:54:18;;;;;;;81.18;38.55;;;;;;;12.41;100.00;100857.88;5061676;28;20028;-84
2022/09/24 02:56:47;;;;;;;78.60;36.95;;;;;;;12.46;100.00;100878.47;5045603;28;20033;-84
2022/09/24 02:59:14;;;;;;;83.45;40.67;;;;;;;12.45;100.00;100873.09;5024995;28;20041;-84
2022/09/24 03:01:45;;;;;;;82.05;40.40;;;;;;;12.52;100.00;100878.91;5050954;28;20043;-84
2022/09/24 03:04:17;;;;;;;79.15;37.85;;;;;;;12.52;100.00;100873.44;5070356;28;20559;-84
2022/09/24 03:06:46;;;;;;;80.32;39.17;;;;;;;12.49;100.00;100874.56;5025386;28;20052;-84
2022/09/24 03:09:18;;;;;;;84.32;39.88;;;;;;;12.50;100.00;100877.16;5062855;28;20052;-84
2022/09/24 03:11:46;;;;;;;81.88;39.20;;;;;;;12.49;100.00;100869.94;5028592;28;20084;-84
2022/09/24 03:14:24;;;;;;;90.40;40.70;;;;;;;12.49;100.00;100863.56;5017748;28;20055;-84
2022/09/24 03:16:50;;;;;;;83.93;41.17;;;;;;;12.50;100.00;100859.81;5025836;28;20031;-85
2022/09/24 03:19:17;;;;;;;87.82;39.97;;;;;;;12.47;100.00;100841.72;5028992;28;20033;-85
2022/09/24 03:21:54;;;;;;;105.95;42.45;;;;;;;12.58;100.00;100861.91;5030717;28;20032;-85
2022/09/24 03:24:21;;;;;;;85.93;40.60;;;;;;;12.56;100.00;100858.41;5060513;28;20036;-85
2022/09/24 03:26:49;;;;;;;81.88;39.95;;;;;;;12.55;100.00;100853.94;5029181;28;20044;-85
2022/09/24 03:30:58;;;;;;;91.82;42.28;;;;;;;12.50;100.00;100843.34;5042346;28;20122;-85
2022/09/24 03:32:13;;;;;;;87.18;41.78;;;;;;;12.52;100.00;100852.31;5061040;28;20124;-85
2022/09/24 03:34:41;;;;;;;97.93;42.58;;;;;;;12.54;100.00;100849.44;5029102;28;20385;-84
2022/09/24 03:37:12;;;;;;;90.13;41.55;;;;;;;12.55;100.00;100851.19;5056283;28;20095;-84
2022/09/24 03:39:56;;;;;;;89.00;41.42;;;;;;;12.49;100.00;100845.22;5063372;28;20037;-84
2022/09/24 03:42:22;;;;;;;92.13;40.25;;;;;;;12.52;100.00;100857.81;5067932;28;20029;-85
2022/09/24 03:44:48;;;;;;;96.82;43.28;;;;;;;12.54;100.00;100853.03;5028060;28;20387;-85
2022/09/24 03:47:16;;;;;;;95.20;42.38;;;;;;;12.42;100.00;100846.75;5049986;28;20052;-85
2022/09/24 03:49:45;;;;;;;89.38;40.92;;;;;;;12.47;100.00;100849.97;5042629;28;20059;-85
2022/09/24 03:52:14;;;;;;;92.65;42.47;;;;;;;12.54;100.00;100852.19;5041733;28;20036;-85
2022/09/24 03:54:50;;;;;;;88.82;42.78;;;;;;;12.56;100.00;100845.56;5024764;28;20062;-85
2022/09/24 03:57:24;;;;;;;87.30;42.33;;;;;;;12.58;100.00;100846.28;5059691;28;20043;-85
2022/09/24 03:59:52;;;;;;;90.03;42.10;;;;;;;12.59;100.00;100855.41;5034722;28;20075;-85
2022/09/24 04:02:19;;;;;;;89.18;40.50;;;;;;;12.59;100.00;100856.28;5044923;28;20040;-85
2022/09/24 04:04:50;;;;;;;94.60;41.33;;;;;;;12.54;100.00;100842.06;5058981;28;20036;-84
2022/09/24 04:07:26;;;;;;;87.60;41.80;;;;;;;12.61;100.00;100859.75;5030971;28;20040;-84
2022/09/24 04:10:03;;;;;;;86.75;41.08;;;;;;;12.53;100.00;100843.09;5029085;28;20049;-85
2022/09/24 04:12:42;;;;;;;92.40;41.88;;;;;;;12.60;100.00;100848.91;5042793;28;20029;-85
2022/09/24 04:15:09;;;;;;;90.65;41.80;;;;;;;12.61;100.00;100856.13;5048413;28;20032;-85
2022/09/24 04:17:36;;;;;;;93.57;42.22;;;;;;;12.55;100.00;100846.56;5026569;28;20036;-85
2022/09/24 04:20:21;;;;;;;91.00;42.25;;;;;;;12.57;100.00;100841.78;5050115;28;20024;-85
2022/09/24 04:22:50;;;;;;;86.15;40.00;;;;;;;12.56;100.00;100836.44;5067820;28;20033;-85
2022/09/24 04:25:29;;;;;;;94.95;41.88;;;;;;;12.60;100.00;100838.78;5059195;28;20025;-85
2022/09/24 04:28:07;;;;;;;95.85;44.67;;;;;;;12.59;100.00;100831.56;5060269;28;20031;-85
2022/09/24 04:30:34;;;;;;;93.72;42.38;;;;;;;12.56;100.00;100831.84;5057842;28;20024;-85
2022/09/24 04:33:06;;;;;;;83.57;40.83;;;;;;;12.58;100.00;100828.94;5037757;28;20480;-86
2022/09/24 04:35:46;;;;;;;96.97;44.17;;;;;;;12.55;100.00;100819.09;5044148;28;20397;-85
2022/09/24 04:38:21;;;;;;;97.43;44.03;;;;;;;12.58;100.00;100823.47;5043129;28;20032;-85
2022/09/24 04:40:48;;;;;;;96.40;44.17;;;;;;;12.58;100.00;100826.22;5045923;28;20075;-85
2022/09/24 04:43:20;;;;;;;;;;;;;;;12.58;100.00;100823.47;5061248;28;20036;-85
2022/09/24 04:45:52;;;;;;;103.40;44.42;;;;;;;12.57;100.00;100819.81;5044636;28;19940;-84
2022/09/24 04:48:22;;;;;;;101.95;45.08;;;;;;;12.57;100.00;100824.44;5042126;28;20036;-84
2022/09/24 04:50:48;;;;;;;95.60;44.85;;;;;;;12.35;100.00;100801.63;5027062;28;20031;-84
2022/09/24 04:53:26;;;;;;;89.25;41.78;;;;;;;12.48;100.00;100824.25;5014100;28;20051;-84
2022/09/24 04:55:54;;;;;;;98.75;41.30;;;;;;;12.43;100.00;100815.56;5041599;28;20039;-84
2022/09/24 04:58:32;;;;;;;99.85;40.60;;;;;;;12.53;100.00;100818.38;5033173;28;20032;-86
2022/09/24 05:01:02;;;;;;;95.40;43.15;;;;;;;12.48;100.00;100827.00;5040614;28;20029;-84
2022/09/24 05:03:29;;;;;;;96.95;42.20;;;;;;;12.45;100.00;100826.41;5071620;28;20098;-84
2022/09/24 05:05:56;;;;;;;88.90;41.65;;;;;;;12.44;100.00;100828.25;5028040;28;20032;-85
2022/09/24 05:08:22;;;;;;;95.22;41.17;;;;;;;12.45;100.00;100831.91;5056314;28;20478;-83
2022/09/24 05:10:54;;;;;;;101.25;44.20;;;;;;;12.46;100.00;100828.13;5074775;28;20040;-83
2022/09/24 05:13:26;;;;;;;84.07;39.88;;;;;;;12.42;100.00;100840.41;5052727;28;20089;-82
2022/09/24 05:15:54;;;;;;;86.35;42.13;;;;;;;12.46;100.00;100836.38;5046369;28;20510;-82
2022/09/24 05:18:26;;;;;;;89.95;41.22;;;;;;;12.40;100.00;100825.94;5058985;28;20036;-83
2022/09/24 05:20:56;;;;;;;92.78;44.05;;;;;;;12.43;100.00;100834.78;5046581;28;20078;-83
2022/09/24 05:23:28;;;;;;;90.28;40.20;;;;;;;12.43;100.00;100834.78;5058136;28;20021;-82
2022/09/24 05:28:51;;;;;;;132.75;44.25;;;;;;;12.40;100.00;100843.28;5050683;28;20395;-83
2022/09/24 05:31:19;;;;;;;103.18;43.65;;;;;;;12.41;100.00;100846.88;5028835;28;20029;-82
2022/09/24 05:33:47;;;;;;;96.13;43.25;;;;;;;12.39;100.00;100848.91;5030397;28;20044;-80
2022/09/24 05:36:26;;;;;;;94.03;44.42;;;;;;;12.38;100.00;100842.56;5052831;28;20033;-80
2022/09/24 05:38:53;;;;;;;106.45;43.75;;;;;;;12.41;100.00;100839.53;5075302;28;20092;-81
2022/09/24 05:41:19;;;;;;;102.63;44.60;;;;;;;12.41;100.00;100844.16;5052247;28;20065;-81
2022/09/24 05:43:50;;;;;;;105.38;47.67;;;;;;;12.36;100.00;100843.69;5069403;28;20086;-81
2022/09/24 05:46:22;;;;;;;118.47;47.47;;;;;;;12.40;100.00;100840.53;5036869;28;20029;-81
2022/09/24 05:48:48;;;;;;;109.68;47.80;;;;;;;12.35;100.00;100847.41;5053168;28;20032;-82
2022/09/24 05:51:17;;;;;;;98.63;44.65;;;;;;;12.33;100.00;100842.09;5052129;28;20029;-82
2022/09/24 05:53:45;;;;;;;109.75;48.90;;;;;;;12.37;100.00;100842.69;5028484;28;20082;-82
2022/09/24 05:56:12;;;;;;;105.93;46.70;;;;;;;12.34;100.00;100829.22;5059904;28;20062;-82
2022/09/24 05:58:49;;;;;;;103.80;46.63;;;;;;;12.39;100.00;100846.16;5045422;28;20040;-82
2022/09/24 06:01:16;;;;;;;108.38;47.58;;;;;;;12.41;100.00;100849.63;5021979;28;20842;-82
2022/09/24 06:03:45;;;;;;;110.45;48.78;;;;;;;12.42;100.00;100848.63;5055543;28;20033;-83
2022/09/24 06:06:16;;;;;;;115.97;48.17;;;;;;;12.36;100.00;100846.41;5044628;28;20048;-83
2022/09/24 06:08:48;;;;;;;105.63;46.42;;;;;;;12.39;100.00;100848.91;5046212;28;20043;-83
2022/09/24 06:11:33;;;;;;;115.32;47.88;;;;;;;12.42;100.00;100845.91;5052427;28;20055;-82
2022/09/24 06:14:05;;;;;;;120.05;49.58;;;;;;;12.45;100.00;100851.97;5053270;28;20063;-83
2022/09/24 06:16:32;;;;;;;106.63;47.20;;;;;;;12.42;100.00;100834.91;5064506;28;20479;-83
2022/09/24 06:19:00;;;;;;;94.63;43.38;;;;;;;12.53;100.00;100859.56;5065595;28;20745;-83
2022/09/24 06:21:30;;;;;;;93.18;42.58;;;;;;;12.53;100.00;100855.91;5077137;28;20407;-82
2022/09/24 06:24:04;;;;;;;95.32;43.33;;;;;;;12.47;100.00;100841.72;5030427;28;20054;-82
2022/09/24 06:26:41;;;;;;;94.60;42.97;;;;;;;12.52;100.00;100856.94;5031595;28;20040;-81
2022/09/24 06:29:10;;;;;;;91.90;43.60;;;;;;;12.52;100.00;100859.69;5040970;28;20123;-81
2022/09/24 06:31:50;;;;;;;97.45;43.28;;;;;;;12.60;100.00;100855.25;5037351;28;20040;-82
2022/09/24 06:34:20;;;;;;;85.63;41.20;;;;;;;12.59;100.00;100855.41;5058678;28;20031;-81
2022/09/24 06:36:53;;;;;;;104.53;43.60;;;;;;;12.49;100.00;100847.09;5045658;28;20024;-82
2022/09/24 06:39:28;;;;;;;93.43;43.00;;;;;;;12.60;100.00;100862.63;5056451;28;21338;-82
2022/09/24 06:41:58;;;;;;;103.80;44.10;;;;;;;12.61;100.00;100857.00;5064380;28;20041;-83
2022/09/24 06:44:27;;;;;;;115.25;45.80;;;;;;;12.66;100.00;100862.09;5023317;28;20480;-83
2022/09/24 06:46:53;;;;;;;86.10;43.05;;;;;;;12.72;100.00;100866.19;5055098;28;20486;-82
2022/09/24 06:49:25;;;;;;;92.20;41.92;;;;;;;12.71;100.00;100862.56;5040148;28;20033;-80
2022/09/24 06:51:54;;;;;;;97.97;41.97;;;;;;;12.72;100.00;100863.44;5027262;28;20029;-79
2022/09/24 06:54:35;;;;;;;94.18;42.90;;;;;;;12.79;100.00;100876.50;5059197;28;20036;-82
2022/09/24 06:57:06;;;;;;;97.13;42.10;;;;;;;12.75;100.00;100869.53;5046586;28;20095;-81
2022/09/24 06:59:44;;;;;;;88.13;39.85;;;;;;;12.81;100.00;100879.97;5073352;28;20071;-82
2022/09/24 07:02:16;;;;;;;92.57;40.63;;;;;;;12.83;100.00;100879.84;5062178;28;20040;-81
2022/09/24 07:04:44;;;;;;;112.05;43.72;;;;;;;12.79;100.00;100881.09;5045939;28;20392;-83
2022/09/24 07:10:06;;;;;;;91.40;40.30;;;;;;;12.79;100.00;100881.09;5045015;28;20513;-83
2022/09/24 07:12:43;;;;;;;94.15;42.05;;;;;;;12.73;100.00;100877.03;5035796;28;20071;-81
2022/09/24 07:15:13;;;;;;;102.28;43.55;;;;;;;12.75;100.00;100885.16;5029494;28;20033;-79
2022/09/24 07:17:42;;;;;;;88.68;41.33;;;;;;;12.76;100.00;100881.41;5084871;28;20044;-82
2022/09/24 07:20:09;;;;;;;90.35;41.72;;;;;;;12.76;100.00;100887.75;5071405;28;20035;-82
2022/09/24 07:22:40;;;;;;;79.57;40.00;;;;;;;12.81;100.00;100895.59;5086940;28;20051;-83
2022/09/24 07:25:15;;;;;;;85.70;40.83;;;;;;;12.74;100.00;100884.28;5089345;28;20027;-83
2022/09/24 07:27:51;;;;;;;96.57;41.53;;;;;;;12.84;100.00;100887.94;5044278;28;20033;-79
2022/09/24 07:30:17;;;;;;;81.95;37.67;;;;;;;12.85;100.00;100891.56;5046389;28;20024;-78
2022/09/24 07:32:55;;;;;;;80.97;37.80;;;;;;;12.84;100.00;100893.44;5067054;28;20037;-79
2022/09/24 07:35:27;;;;;;;97.00;40.67;;;;;;;12.87;100.00;100895.94;5042756;28;20094;-80
2022/09/24 07:38:05;;;;;;;84.32;37.70;;;;;;;12.89;100.00;100887.56;5064697;28;20533;-81
2022/09/24 07:40:33;;;;;;;82.22;37.05;;;;;;;12.86;100.00;100896.06;5075595;28;20041;-82
2022/09/24 07:43:02;;;;;;;82.13;40.15;;;;;;;12.89;100.00;100895.78;5060881;28;20035;-82
2022/09/24 07:45:40;;;;;;;82.30;35.35;;;;;;;12.87;100.00;100895.03;5081726;28;20064;-82
2022/09/24 07:48:11;;;;;;;85.95;37.65;;;;;;;12.91;100.00;100896.53;5081490;28;20494;-82
2022/09/24 07:50:39;;;;;;;77.57;35.05;;;;;;;12.96;100.00;100888.72;5058654;28;20020;-82
2022/09/24 07:53:11;;;;;;;;;;;;;;;12.99;100.00;100904.09;5045989;28;20472;-82
2022/09/24 07:55:40;;;;;;;73.00;32.88;;;;;;;12.95;100.00;100903.47;5058920;28;19913;-83
2022/09/24 07:58:12;;;;;;;63.22;31.40;;;;;;;13.03;100.00;100906.41;5043942;28;20029;-83
2022/09/24 08:00:39;;;;;;;73.60;34.20;;;;;;;13.06;100.00;100908.03;5063369;28;20024;-83
2022/09/24 08:03:19;;;;;;;80.90;35.70;;;;;;;13.07;100.00;100901.53;5079721;28;20036;-82
2022/09/24 08:05:47;;;;;;;73.60;34.33;;;;;;;13.02;100.00;100904.69;5047990;28;20025;-83
2022/09/24 08:08:19;;;;;;;72.25;34.20;;;;;;;13.07;100.00;100912.53;5016532;28;20124;-82
2022/09/24 08:10:46;;;;;;;71.22;34.22;;;;;;;13.04;100.00;100901.81;5060420;28;20057;-82
2022/09/24 08:13:13;;;;;;;76.40;34.70;;;;;;;13.08;100.00;100913.41;5060855;28;20479;-81
2022/09/24 08:15:42;;;;;;;86.28;35.20;;;;;;;13.11;100.00;100913.13;5053343;28;20028;-82
2022/09/24 08:18:16;;;;;;;82.15;34.75;;;;;;;13.13;100.00;100914.72;5046960;28;20037;-82
2022/09/24 08:20:46;;;;;;;83.47;36.67;;;;;;;13.09;100.00;100912.41;5028862;28;20063;-83
2022/09/24 08:23:24;;;;;;;73.88;34.72;;;;;;;13.08;100.00;100917.00;5039942;28;20475;-82
2022/09/24 08:25:56;;;;;;;74.18;34.85;;;;;;;13.11;100.00;100922.22;5064828;28;20415;-83
2022/09/24 08:28:28;;;;;;;83.78;35.03;;;;;;;13.16;100.00;100921.81;5038685;28;20036;-82
2022/09/24 08:31:00;;;;;;;81.38;34.05;;;;;;;13.11;100.00;100918.63;5042650;28;20025;-82
2022/09/24 08:33:38;;;;;;;75.78;33.95;;;;;;;13.10;100.00;100923.25;5057460;28;20036;-82
2022/09/24 08:36:08;;;;;;;74.85;32.40;;;;;;;13.15;100.00;100923.72;5049674;28;20020;-82
2022/09/24 08:38:46;;;;;;;70.68;34.22;;;;;;;13.25;100.00;100923.75;5094648;28;20063;-83
2022/09/24 08:41:24;;;;;;;74.75;35.60;;;;;;;13.21;100.00;100925.91;5070074;28;20036;-83
2022/09/24 08:44:08;;;;;;;69.55;32.05;;;;;;;13.25;100.00;100932.00;5037478;28;20063;-83
2022/09/24 08:49:42;;;;;;;78.85;33.90;;;;;;;13.36;100.00;100937.47;5064642;28;20036;-81
2022/09/24 08:52:36;;;;;;;76.82;33.67;;;;;;;13.31;100.00;100936.94;5044480;28;20029;-81
2022/09/24 08:55:14;;;;;;;102.43;35.17;;;;;;;13.31;100.00;100936.09;5046838;28;20036;-82
2022/09/24 08:58:13;;;;;;;90.63;32.53;;;;;;;13.31;100.00;100936.94;5051633;28;20035;-81
2022/09/24 09:00:57;;;;;;;79.82;35.22;;;;;;;13.35;100.00;100945.84;5062121;28;20033;-82
2022/09/24 09:03:44;;;;;;;70.00;33.15;;;;;;;13.41;100.00;100948.91;5063794;28;20033;-82
2022/09/24 09:06:30;;;;;;;65.80;32.17;;;;;;;13.33;100.00;100948.72;5048732;28;20494;-82
2022/09/24 09:09:11;;;;;;;67.90;31.50;;;;;;;13.37;100.00;100941.94;5075728;28;20106;-81
2022/09/24 09:11:47;;;;;;;82.53;33.78;;;;;;;13.44;100.00;100953.25;5038084;28;20353;-82
2022/09/24 09:14:33;;;;;;;69.20;33.13;;;;;;;13.52;100.00;100942.44;5059697;28;20039;-82
2022/09/24 09:17:41;;;;;;;92.25;33.88;;;;;;;13.56;100.00;100954.91;5076662;28;20103;-82
2022/09/24 09:20:23;;;;;;;63.13;31.73;;;;;;;13.59;100.00;100951.00;5048352;28;20059;-81
2022/09/24 09:23:03;;;;;;;73.10;30.65;;;;;;;13.62;100.00;100947.09;5045162;28;20033;-82
2022/09/24 09:25:33;;;;;;;;;;;;;;;13.65;100.00;100950.44;5061334;28;20025;-82
2022/09/24 09:28:14;;;;;;;67.97;30.08;;;;;;;13.65;100.00;100946.84;5075248;28;19912;-82
2022/09/24 09:31:10;;;;;;;74.93;32.35;;;;;;;13.71;100.00;100944.38;5065678;28;20051;-83
2022/09/24 09:34:09;;;;;;;78.00;29.67;;;;;;;13.79;100.00;100952.81;5061780;28;20539;-81
2022/09/24 09:37:33;;;;;;;64.57;29.65;;;;;;;13.83;100.00;100952.53;5070409;28;20021;-81
2022/09/24 09:40:30;;;;;;;64.38;28.52;;;;;;;13.78;100.00;100956.56;4995871;28;20081;-83
2022/09/24 09:43:01;;;;;;;58.45;29.25;;;;;;;13.88;100.00;100953.00;4996827;28;20084;-82
2022/09/24 09:45:59;;;;;;;66.28;29.95;;;;;;;13.97;100.00;100954.91;5069220;28;20040;-82
2022/09/24 09:48:55;;;;;;;58.38;29.05;;;;;;;13.92;100.00;100954.44;5059920;28;20036;-82
2022/09/24 09:51:45;;;;;;;67.78;29.75;;;;;;;13.99;100.00;100944.63;5075404;28;20044;-82
2022/09/24 09:54:20;;;;;;;71.95;30.77;;;;;;;14.07;100.00;100944.78;5051566;28;20036;-82
2022/09/24 09:56:49;;;;;;;62.50;28.58;;;;;;;14.06;100.00;100947.66;5030603;28;20120;-82
2022/09/24 09:59:22;;;;;;;65.35;29.02;;;;;;;14.14;100.00;100945.94;5012444;28;20144;-82
2022/09/24 10:01:55;;;;;;;57.08;27.58;;;;;;;14.06;100.00;100937.50;5041070;28;20512;-82
2022/09/24 10:04:33;;;;;;;60.73;27.23;;;;;;;14.15;100.00;100949.56;5064392;28;20028;-83
2022/09/24 10:07:16;;;;;;;61.40;27.58;;;;;;;14.18;100.00;100943.75;5062807;28;20034;-82
2022/09/24 10:09:59;;;;;;;68.30;29.55;;;;;;;14.22;100.00;100947.97;5064410;28;20032;-82
2022/09/24 10:12:29;;;;;;;67.60;29.70;;;;;;;14.23;100.00;100949.75;5048269;28;20074;-81
2022/09/24 10:15:14;;;;;;;67.13;30.83;;;;;;;14.26;100.00;100948.56;5044222;28;20480;-83
2022/09/24 10:17:53;;;;;;;60.30;29.50;;;;;;;14.25;100.00;100949.56;5063676;28;20239;-82
2022/09/24 10:20:33;;;;;;;59.38;27.92;;;;;;;14.22;100.00;100953.50;5082948;28;20089;-83
2022/09/24 10:23:06;;;;;;;58.05;26.83;;;;;;;14.21;100.00;100956.38;5039984;28;20033;-81
2022/09/24 10:25:57;;;;;;;60.03;27.60;;;;;;;14.41;100.00;100952.63;5076137;28;20032;-82
2022/09/24 10:31:36;;;;;;;56.70;28.58;;;;;;;14.42;100.00;100942.50;5068078;28;20092;-82
2022/09/24 10:34:16;;;;;;;62.45;30.73;;;;;;;14.38;100.00;100932.75;5044146;28;20029;-82
2022/09/24 10:36:59;;;;;;;59.45;30.15;;;;;;;14.72;100.00;100944.25;5044432;28;20064;-83
2022/09/24 10:39:33;;;;;;;67.05;31.70;;;;;;;14.91;100.00;100953.53;5064781;28;20552;-83
2022/09/24 10:42:28;;;;;;;58.03;28.08;;;;;;;14.85;100.00;100939.28;5045374;28;20384;-83
2022/09/24 10:44:57;;;;;;;46.93;24.50;;;;;;;14.76;100.00;100948.47;5035248;28;20033;-83
2022/09/24 10:47:42;;;;;;;;;;;;;;;14.89;100.00;100948.16;5080429;28;20033;-82
2022/09/24 10:50:59;;;;;;;60.35;27.13;;;;;;;14.95;100.00;100943.94;5080642;28;19919;-83
2022/09/24 10:54:12;;;;;;;51.22;26.00;;;;;;;15.04;100.00;100952.19;5052989;28;20519;-82
2022/09/24 10:56:54;;;;;;;57.92;25.75;;;;;;;15.02;100.00;100954.22;5035308;28;20392;-83
2022/09/24 10:59:44;;;;;;;45.77;23.57;;;;;;;15.18;100.00;100948.09;5062589;28;20115;-83
2022/09/24 11:02:12;;;;;;;64.53;25.50;;;;;;;15.05;100.00;100958.56;5042128;28;20032;-83
2022/09/24 11:04:56;;;;;;;46.67;25.77;;;;;;;15.19;100.00;100958.09;5079047;28;20044;-83
2022/09/24 11:07:31;;;;;;;;;;;;;;;15.18;100.00;100961.00;5063829;28;20058;-83
2022/09/24 11:10:51;;;;;;;60.38;27.73;;;;;;;15.32;100.00;100962.44;5064535;28;19908;-83
2022/09/24 11:13:30;;;;;;;52.75;25.13;;;;;;;15.47;100.00;100960.91;5078185;28;20048;-83
2022/09/24 11:16:18;;;;;;;48.13;25.45;;;;;;;15.56;100.00;100965.53;5060070;28;20115;-83
2022/09/24 11:18:57;;;;;;;44.30;23.25;;;;;;;15.56;100.00;100959.13;5070091;28;20029;-83
2022/09/24 11:21:38;;;;;;;49.17;22.92;;;;;;;15.63;100.00;100963.91;5062293;28;20399;-83
2022/09/24 11:24:26;;;;;;;51.65;22.83;;;;;;;15.65;100.00;100962.88;5083033;28;20020;-83
2022/09/24 11:27:12;;;;;;;43.67;21.48;;;;;;;15.47;100.00;100960.91;5072289;28;20391;-83
2022/09/24 11:30:06;;;;;;;44.95;23.35;;;;;;;15.65;100.00;100958.22;5085953;28;20063;-83
2022/09/24 11:33:12;;;;;;;48.78;22.48;;;;;;;15.51;100.00;100967.88;5046220;28;20028;-83
2022/09/24 11:35:50;;;;;;;42.72;20.58;;;;;;;15.38;100.00;100959.06;5066571;28;20033;-83
2022/09/24 11:38:26;;;;;;;38.45;20.60;;;;;;;15.59;100.00;100959.72;5069474;28;20067;-83
2022/09/24 11:41:15;;;;;;;42.47;22.23;;;;;;;15.72;100.00;100952.97;5069125;28;20067;-83
2022/09/24 11:43:59;;;;;;;46.58;21.83;;;;;;;15.80;100.00;100955.84;5067777;28;20375;-83
2022/09/24 11:46:57;;;;;;;38.65;19.42;;;;;;;15.88;100.00;100955.97;5049493;28;20487;-84
2022/09/24 11:49:42;;;;;;;41.25;19.75;;;;;;;15.97;100.00;100962.44;5052699;28;20037;-83
2022/09/24 11:52:28;;;;;;;39.63;19.15;;;;;;;16.00;100.00;100964.91;5048883;28;20538;-84
2022/09/24 11:55:22;;;;;;;39.97;19.70;;;;;;;15.87;100.00;100953.34;5032637;28;20082;-84
2022/09/24 11:57:56;;;;;;;;;;;;;;;15.86;100.00;100959.91;5065267;28;20028;-84
2022/09/24 12:00:35;;;;;;;41.92;18.98;;;;;;;15.90;100.00;100958.56;5068929;28;20460;-85
2022/09/24 12:03:26;;;;;;;45.78;20.77;;;;;;;15.78;100.00;100942.22;5062894;28;20035;-85